METAR Data
IDs: Format: Raw Decoded Include TAF

Data at: 1757 UTC 06 Jul 2020

KBNL 061755Z AUTO 10007KT FEW040 31/21 A3002 RMK AO2 LTG DSNT NE AND S
KBNL 061735Z AUTO 15005KT 10SM -DZ FEW034 31/22 A3003 RMK AO2 LTG DSNT NE AND W
KBNL 061715Z AUTO 14008KT 10SM -DZ FEW032 30/23 A3003 RMK AO2 LTG DSNT ALQDS
KBNL 061655Z AUTO 23005KT 10SM FEW028 SCT033 SCT065 30/24 A3004 RMK AO2 LTG DSNT E AND SE AND W P0004
KBNL 061635Z AUTO 00000KT 10SM BKN025 BKN033 BKN065 27/24 A3005 RMK AO2 LTG DSNT NE AND SE AND SW
KBNL 061615Z AUTO 28006G13KT 2 1/2SM -DZ BKN025 BKN036 BKN065 24/22 A3006 RMK AO2
KBNL 061555Z AUTO 11004KT 10SM FEW027 SCT037 BKN085 29/22 A3006 RMK AO2 LTG DSNT SE AND SW
KBNL 061535Z AUTO 11005KT 10SM FEW027 FEW039 SCT055 30/23 A3006 RMK AO2
KBNL 061515Z AUTO 10004KT 10SM SCT024 BKN030 BKN043 29/22 A3007 RMK AO2
KBNL 061455Z AUTO VRB05KT 10SM BKN024 BKN029 29/22 A3006 RMK AO2 LTG DSNT E AND SE
KBNL 061435Z AUTO 12006KT 10SM FEW025 SCT030 SCT037 29/21 A3006 RMK AO2
KBNL 061415Z AUTO 00000KT 10SM FEW018 SCT026 BKN030 28/22 A3006 RMK AO2
KBNL 061355Z AUTO 11004KT 10SM SCT014 BKN025 OVC036 27/22 A3006 RMK AO2 LTG DSNT SE
KBNL 061335Z AUTO 13004KT 10SM SCT013 BKN024 26/23 A3005 RMK AO2
KBNL 061315Z AUTO 13004KT 10SM FEW013 SCT027 26/23 A3005 RMK AO2
KBNL 061255Z AUTO 00000KT 10SM SCT014 SCT027 BKN075 24/23 A3005 RMK AO2
KBNL 061235Z AUTO 00000KT 10SM FEW009 BKN014 BKN039 24/23 A3005 RMK AO2
KBNL 061215Z AUTO 00000KT 2SM -DZ FEW008 SCT012 BKN039 24/23 A3004 RMK AO2
KBNL 061155Z AUTO 00000KT 10SM FEW012 BKN036 OVC065 24/22 A3004 RMK AO2
KBNL 061135Z AUTO 00000KT 10SM FEW018 SCT055 BKN065 24/22 A3003 RMK AO2
KBNL 061115Z AUTO 00000KT 10SM BKN016 BKN021 23/22 A3002 RMK AO2
KBNL 061055Z AUTO 00000KT 10SM BKN014 BKN021 BKN043 23/22 A3002 RMK AO2
KBNL 061035Z AUTO 00000KT 10SM 23/22 A3001 RMK AO2
KBNL 061015Z AUTO 00000KT 10SM 23/22 A3000 RMK AO2
KBNL 060955Z AUTO 00000KT 10SM 23/22 A3000 RMK AO2
KBNL 060935Z AUTO 00000KT 10SM 23/22 A2999 RMK AO2
KBNL 060915Z AUTO 00000KT 10SM 23/22 A2999 RMK AO2
KBNL 060855Z AUTO 00000KT 10SM FEW027 FEW039 BKN060 23/22 A2999 RMK AO2
KBNL 060835Z AUTO 00000KT 10SM 23/22 A2999 RMK AO2
KBNL 060815Z AUTO 00000KT 10SM 23/22 A2998 RMK AO2
KBNL 060755Z AUTO 00000KT 10SM FEW034 OVC045 24/22 A2998 RMK AO2
KBNL 060735Z AUTO 12004KT 10SM FEW034 BKN046 OVC070 24/22 A2998 RMK AO2
KBNL 060715Z AUTO 12004KT 10SM FEW047 OVC070 24/22 A2998 RMK AO2
KBNL 060655Z AUTO 00000KT 10SM FEW044 FEW050 BKN070 24/22 A2999 RMK AO2
KBNL 060635Z AUTO 00000KT 10SM FEW031 SCT050 BKN065 23/22 A3000 RMK AO2
KBNL 060615Z AUTO 00000KT 10SM FEW037 FEW046 FEW050 23/22 A3000 RMK AO2
KBNL 060555Z AUTO 00000KT 10SM 24/22 A3000 RMK AO2
KBNL 060535Z AUTO 00000KT 10SM 24/21 A3000 RMK AO2
KBNL 060515Z AUTO 05004KT 10SM CLR 24/21 A3000 RMK AO2
KBNL 060455Z AUTO 00000KT 10SM CLR 24/21 A3000 RMK AO2
KBNL 060435Z AUTO 00000KT 10SM 25/21 A3000 RMK AO2
KBNL 060415Z AUTO 13003KT 10SM CLR 25/21 A3001 RMK AO2
KBNL 060355Z AUTO 13005KT 10SM CLR 25/21 A3000 RMK AO2
KBNL 060335Z AUTO 13005KT 10SM CLR 25/21 A2999 RMK AO2
KBNL 060315Z AUTO 11005KT 10SM CLR 26/20 A2999 RMK AO2
KBNL 060255Z AUTO 12004KT 10SM CLR 26/20 A2999 RMK AO2
KBNL 060235Z AUTO 12006KT 10SM CLR 26/20 A2999 RMK AO2
KBNL 060215Z AUTO 14005KT 10SM CLR 27/20 A2999 RMK AO2
KBNL 060155Z AUTO 12006KT 10SM CLR 27/19 A2998 RMK AO2
KBNL 060135Z AUTO 12006KT 10SM CLR 27/20 A2998 RMK AO2
KBNL 060115Z AUTO 13008KT 10SM CLR 28/20 A2997 RMK AO2
KBNL 060055Z AUTO 16008KT 10SM CLR 28/20 A2997 RMK AO2
KBNL 060035Z AUTO 15009KT 10SM CLR 29/19 A2996 RMK AO2
KBNL 060015Z AUTO 16008KT 10SM CLR 29/20 A2996 RMK AO2
KBNL 052355Z AUTO 13009KT 10SM CLR 30/20 A2995 RMK AO2
KBNL 052335Z AUTO 13010KT 10SM CLR 31/19 A2994 RMK AO2
KBNL 052315Z AUTO 13010KT CLR 31/18 A2994 RMK AO2 LTG DSNT SE AND S
KBNL 052255Z AUTO 12010G16KT CLR 32/18 A2993 RMK AO2
KBNL 052235Z AUTO 15011G16KT FEW055 32/18 A2993 RMK AO2
KBNL 052215Z AUTO 13011G16KT 10SM FEW055 33/18 A2992 RMK AO2
KBNL 052155Z AUTO 12012KT 10SM FEW055 FEW065 33/18 A2992 RMK AO2
KBNL 052135Z AUTO 13011G16KT 10SM FEW060 FEW070 33/18 A2992 RMK AO2
KBNL 052115Z AUTO 11011KT 10SM CLR 33/18 A2992 RMK AO2
KBNL 052055Z AUTO 14010G16KT 10SM CLR 34/19 A2992 RMK AO2
KBNL 052035Z AUTO 12010G15KT CLR 34/19 A2993 RMK AO2
KBNL 052015Z AUTO 12011KT FEW055 SCT070 SCT085 33/18 A2994 RMK AO2
KBNL 051955Z AUTO 09005G15KT FEW055 FEW070 34/18 A2994 RMK AO2
KBNL 051935Z AUTO 13008KT FEW060 FEW070 33/18 A2995 RMK AO2
KBNL 051915Z AUTO 10010KT 10SM FEW060 FEW070 34/18 A2996 RMK AO2
KBNL 051855Z AUTO 09008G13KT CLR 33/17 A2997 RMK AO2
KBNL 051835Z AUTO 13006G12KT FEW055 33/18 A2997 RMK AO2
KBNL 051815Z AUTO 12008G13KT FEW055 33/18 A2998 RMK AO2
KBNL 051755Z AUTO 11007G17KT FEW055 33/17 A2998 RMK AO2
KBNL 051735Z AUTO 11005G12KT SCT055 32/18 A2999 RMK AO2
KBNL 051715Z AUTO VRB04G12KT CLR 32/18 A2999 RMK AO2
KBNL 051655Z AUTO 12007G13KT 10SM FEW050 FEW055 32/18 A3000 RMK AO2
KBNL 051635Z AUTO 13008KT 080V150 FEW050 FEW055 31/18 A3000 RMK AO2
KBNL 051615Z AUTO 18004KT SCT046 SCT050 31/19 A3000 RMK AO2
KBNL 051555Z AUTO 13006KT SCT043 SCT049 31/20 A3000 RMK AO2
KBNL 051535Z AUTO 00000KT CLR 31/20 A3000 RMK AO2
KBNL 051515Z AUTO VRB03G10KT 10SM CLR 30/20 A3001 RMK AO2
KBNL 051455Z AUTO 15007KT CLR 30/19 A3000 RMK AO2
KBNL 051435Z AUTO 00000KT CLR 29/19 A3000 RMK AO2
KBNL 051415Z AUTO 00000KT 10SM CLR 29/21 A3000 RMK AO2
KBNL 051355Z AUTO 00000KT 10SM CLR 29/22 A3000 RMK AO2
KBNL 051335Z AUTO 00000KT 10SM CLR 28/22 A2999 RMK AO2
KBNL 051315Z AUTO 00000KT 10SM CLR 28/22 A3000 RMK AO2
KBNL 051255Z AUTO 00000KT 10SM CLR 27/23 A3000 RMK AO2 LTG DSNT SE
KBNL 051235Z AUTO 00000KT 10SM CLR 26/22 A2999 RMK AO2
KBNL 051215Z AUTO 00000KT 10SM CLR 24/22 A2998 RMK AO2
KBNL 051155Z AUTO 00000KT 9SM CLR 23/21 A2998 RMK AO2
KBNL 051135Z AUTO 00000KT 9SM CLR 22/21 A2998 RMK AO2
KBNL 051115Z AUTO 00000KT 8SM CLR 21/20 A2998 RMK AO2
KBNL 051055Z AUTO 00000KT 9SM CLR 20/20 A2997 RMK AO2
KBNL 051035Z AUTO 00000KT 4SM BR CLR 20/20 A2997 RMK AO2
KBNL 051015Z AUTO 00000KT 10SM 20/19 A2996 RMK AO2
KBNL 050955Z AUTO 00000KT 10SM 21/20 A2996 RMK AO2
KBNL 050935Z AUTO 00000KT 10SM 21/20 A2996 RMK AO2
KBNL 050915Z AUTO 00000KT 10SM FEW034 BKN043 OVC050 21/20 A2995 RMK AO2
KBNL 050855Z AUTO 00000KT 10SM FEW039 BKN045 OVC050 21/20 A2995 RMK AO2
KBNL 050835Z AUTO 00000KT 10SM 21/20 A2995 RMK AO2
KBNL 050815Z AUTO 00000KT 10SM 22/21 A2995 RMK AO2
KBNL 050755Z AUTO 00000KT 10SM FEW030 SCT039 BKN048 22/21 A2995 RMK AO2
KBNL 050735Z AUTO 00000KT 10SM FEW030 SCT038 BKN048 21/21 A2995 RMK AO2
KBNL 050715Z AUTO 00000KT 10SM FEW036 SCT045 21/20 A2996 RMK AO2
KBNL 050655Z AUTO 00000KT 10SM FEW039 SCT047 SCT060 22/21 A2996 RMK AO2
KBNL 050635Z AUTO 00000KT 10SM FEW039 SCT046 BKN055 22/21 A2996 RMK AO2
KBNL 050615Z AUTO 00000KT 10SM 22/20 A2996 RMK AO2